Terminal Aerodrome Forecast
Issued by NWS Topeka, KS

Home | Current Version | Previous Version | Text Only | Print | Product List | Glossary Off
Versions: 1 2 3 4 5 6 7 8 9 10 11 12 13 14 15 16 17 18 19 20 21 22 23

000
FTUS43 KTOP 172300
TAFTOP
TAF
KTOP 172332Z 1800/1824 09006KT P6SM FEW025
     FM181000 09006KT 6SM BR SCT004
      TEMPO 1811/1814 3SM BR
     FM181500 10009KT P6SM SCT015=

USA.gov is the U.S. government's official web portal to all federal, state and local government web resources and services.